Terminal Aerodrome Forecast
Issued by NWS Grand Forks, ND

Home | Current Version | Previous Version | Text Only | Print | Product List | Glossary On
Versions: 1 2 3 4 5 6 7 8 9 10 11 12 13 14 15 16 17 18 19 20 21
000
FTUS43 KFGF 211800 AAA
TAFFAR
TAF AMD
KFAR 211847Z 2119/2218 VRB05KT P6SM BKN035
     FM212100 03005KT P6SM BKN035
     FM220600 35005KT P6SM BKN015
     FM221000 34006KT 6SM BR OVC007=

USA.gov is the U.S. government's official web portal to all federal, state and local government web resources and services.